Time;durP1;ratioP1;P1;durP2;ratioP2;P2;SDS_P1;SDS_P2;PMS_P1;PMS_P2;Temp;Humidity;BMP_temperature;BMP_pressure;BME280_temperature;BME280_humidity;BME280_pressure;Samples;Min_cycle;Max_cycle;Signal;HPM_P1;HPM_P2
2021/08/09 00:00:09;;;;;;;3.38;1.90;;;;;;;11.74;94.43;99005.22;4961371;28;20441;-76
2021/08/09 00:02:34;;;;;;;2.83;1.73;;;;;;;11.77;93.81;99005.66;4970625;28;20041;-76
2021/08/09 00:04:59;;;;;;;6.22;1.88;;;;;;;11.58;93.98;99007.28;4974505;28;20471;-76
2021/08/09 00:07:25;;;;;;;4.05;2.08;;;;;;;11.63;94.85;99012.91;4973619;28;20027;-76
2021/08/09 00:09:50;;;;;;;4.57;2.05;;;;;;;11.52;94.95;98993.69;4960038;28;20484;-76
2021/08/09 00:12:15;;;;;;;4.28;2.20;;;;;;;11.41;95.56;98992.44;4954400;28;20796;-76
2021/08/09 00:14:41;;;;;;;5.93;2.00;;;;;;;11.27;95.52;98979.91;4975154;28;20026;-76
2021/08/09 00:17:07;;;;;;;5.00;1.85;;;;;;;11.43;96.05;99006.59;4975187;28;20507;-76
2021/08/09 00:19:33;;;;;;;6.18;2.20;;;;;;;11.43;95.94;99013.91;4974862;28;20093;-75
2021/08/09 00:21:58;;;;;;;5.95;2.28;;;;;;;11.39;95.78;99010.75;4956636;28;20093;-76
2021/08/09 00:24:23;;;;;;;5.20;2.55;;;;;;;11.51;95.61;99013.72;4966402;28;20041;-76
2021/08/09 00:26:49;;;;;;;2.67;1.88;;;;;;;11.32;95.33;98980.13;4971653;28;20030;-76
2021/08/09 00:29:14;;;;;;;4.50;2.17;;;;;;;11.39;95.24;98978.25;4971060;28;20019;-75
2021/08/09 00:31:39;;;;;;;3.90;1.70;;;;;;;11.21;94.08;98957.16;4974476;28;20026;-76
2021/08/09 00:34:05;;;;;;;3.97;1.20;;;;;;;11.46;93.89;99008.06;4974620;28;20027;-76
2021/08/09 00:36:30;;;;;;;4.15;1.85;;;;;;;11.17;94.21;98972.16;4955929;28;20035;-76
2021/08/09 00:38:55;;;;;;;2.40;1.67;;;;;;;11.16;95.13;98992.13;4967069;28;20014;-76
2021/08/09 00:41:20;;;;;;;3.47;2.00;;;;;;;11.18;95.20;99003.59;4973157;28;20397;-76
2021/08/09 00:43:46;;;;;;;5.03;2.10;;;;;;;11.14;96.49;98992.34;4964218;28;20031;-75
2021/08/09 00:46:11;;;;;;;3.50;1.90;;;;;;;11.01;96.43;98972.50;4961475;28;20038;-76
2021/08/09 00:48:36;;;;;;;2.45;1.83;;;;;;;11.14;97.28;98997.75;4974248;28;20023;-75
2021/08/09 00:51:03;;;;;;;5.68;1.83;;;;;;;11.03;97.13;98994.78;4974222;28;20110;-75
2021/08/09 00:53:29;;;;;;;10.55;2.13;;;;;;;11.06;97.20;98995.22;4974884;28;20035;-75
2021/08/09 00:55:54;;;;;;;5.57;2.08;;;;;;;10.96;96.95;98981.22;4974875;28;20073;-75
2021/08/09 00:58:20;;;;;;;3.25;2.03;;;;;;;11.25;96.49;98990.09;4974963;28;20042;-75
2021/08/09 01:00:46;;;;;;;4.68;2.03;;;;;;;11.16;97.04;99001.09;4974448;28;20516;-75
2021/08/09 01:03:11;;;;;;;2.63;1.88;;;;;;;11.13;96.73;99003.38;4974674;28;20030;-75
2021/08/09 01:05:36;;;;;;;2.80;2.15;;;;;;;11.04;96.89;98983.75;4956417;28;20106;-75
2021/08/09 01:08:18;;;;;;;4.53;2.03;;;;;;;11.12;96.40;99005.25;4973448;28;20086;-76
2021/08/09 01:11:06;;;;;;;5.70;2.10;;;;;;;10.81;97.28;98954.28;4974585;28;20485;-75
2021/08/09 01:13:38;;;;;;;3.65;2.00;;;;;;;10.59;96.66;98945.44;4974152;28;20045;-75
2021/08/09 01:16:12;;;;;;;9.00;2.40;;;;;;;10.93;96.29;98985.16;4974354;28;20449;-75
2021/08/09 01:18:40;;;;;;;3.30;1.98;;;;;;;10.80;96.92;98987.00;4974208;28;20027;-75
2021/08/09 01:21:07;;;;;;;5.83;2.07;;;;;;;10.88;97.12;99005.75;4973027;28;20033;-75
2021/08/09 01:24:03;;;;;;;2.90;1.75;;;;;;;10.83;96.79;99003.66;4973855;28;20329;-75
2021/08/09 01:26:57;;;;;;;6.22;1.80;;;;;;;10.83;96.73;98989.28;4974088;28;20030;-76
2021/08/09 01:29:31;;;;;;;2.55;1.67;;;;;;;10.74;97.21;99002.13;4967942;28;20488;-76
2021/08/09 01:31:58;;;;;;;4.63;1.90;;;;;;;10.82;97.91;99009.25;4976590;28;20027;-74
2021/08/09 01:34:25;;;;;;;3.92;1.85;;;;;;;10.89;97.94;99012.84;4976117;28;20084;-76
2021/08/09 01:36:54;;;;;;;4.45;2.08;;;;;;;10.52;96.86;98977.03;4973203;28;20054;-76
2021/08/09 01:39:19;;;;;;;4.73;2.20;;;;;;;10.82;97.74;99014.66;4974046;28;20110;-76
2021/08/09 01:41:47;;;;;;;9.15;2.35;;;;;;;10.78;98.53;99002.59;4946017;29;20512;-76
2021/08/09 01:44:15;;;;;;;4.70;2.10;;;;;;;10.78;98.90;99018.81;4954337;28;20027;-76
2021/08/09 01:46:41;;;;;;;3.30;2.30;;;;;;;10.79;98.84;99010.47;4972642;28;20114;-77
2021/08/09 01:49:08;;;;;;;5.10;2.30;;;;;;;10.72;98.91;99017.75;4973354;28;20124;-75
2021/08/09 01:51:34;;;;;;;3.75;2.03;;;;;;;10.43;98.60;98989.88;4973436;28;20023;-75
2021/08/09 01:54:01;;;;;;;5.05;2.30;;;;;;;10.65;98.95;99004.16;4973439;28;20392;-76
2021/08/09 01:56:27;;;;;;;7.78;2.30;;;;;;;10.80;98.46;99016.75;4973392;28;20031;-76
2021/08/09 01:58:53;;;;;;;4.60;1.85;;;;;;;10.82;98.61;99017.38;4970595;28;20041;-75
2021/08/09 02:01:19;;;;;;;6.57;2.10;;;;;;;10.87;97.35;98999.53;4973494;28;20248;-75
2021/08/09 02:03:45;;;;;;;5.65;1.80;;;;;;;10.92;96.50;98994.31;4973138;28;20159;-75
2021/08/09 02:06:11;;;;;;;7.25;2.10;;;;;;;11.02;96.32;99025.59;4973109;28;20026;-75
2021/08/09 02:08:37;;;;;;;3.63;1.85;;;;;;;10.69;95.90;99016.28;4973666;28;20114;-75
2021/08/09 02:11:10;;;;;;;4.53;2.22;;;;;;;10.56;96.85;99026.16;4973323;28;20031;-76
2021/08/09 02:13:43;;;;;;;2.47;1.90;;;;;;;10.23;97.18;98996.97;4949733;28;20481;-76
2021/08/09 02:16:15;;;;;;;2.63;1.80;;;;;;;10.37;97.68;99033.09;4973237;28;20031;-76
2021/08/09 02:18:56;;;;;;;4.35;1.98;;;;;;;10.42;98.12;99028.78;4971804;28;20018;-76
2021/08/09 02:21:28;;;;;;;3.88;1.88;;;;;;;10.39;98.21;99026.47;4959711;28;20062;-76
2021/08/09 02:23:59;;;;;;;3.83;2.45;;;;;;;10.36;98.98;99028.75;4971860;28;20043;-76
2021/08/09 02:26:36;;;;;;;3.03;1.90;;;;;;;10.26;99.29;99029.88;5003416;23;20042;-71
2021/08/09 02:29:33;;;;;;;3.80;2.00;;;;;;;10.33;99.45;99039.94;4975096;28;20053;-72
2021/08/09 02:32:01;;;;;;;4.68;1.85;;;;;;;10.25;99.32;99019.25;4953564;28;20119;-71
2021/08/09 02:34:32;;;;;;;2.63;1.67;;;;;;;10.04;98.54;98985.00;4976694;28;20412;-71
2021/08/09 02:36:57;;;;;;;3.65;1.92;;;;;;;10.18;98.88;99029.19;4972515;28;20032;-71
2021/08/09 02:39:23;;;;;;;3.40;1.77;;;;;;;10.01;98.09;99007.84;4973296;28;20023;-71
2021/08/09 02:41:49;;;;;;;6.47;1.88;;;;;;;10.02;98.17;99016.78;4974921;28;20097;-71
2021/08/09 02:44:14;;;;;;;4.57;2.00;;;;;;;10.02;98.37;99031.13;4991531;28;20026;-72
2021/08/09 02:46:41;;;;;;;4.13;2.28;;;;;;;10.07;98.87;99030.53;4986518;28;20023;-71
2021/08/09 02:49:11;;;;;;;3.92;1.95;;;;;;;9.97;97.94;99014.66;4981583;28;20023;-71
2021/08/09 02:51:36;;;;;;;2.85;1.80;;;;;;;10.08;98.32;99041.16;4991864;28;20118;-72
2021/08/09 02:54:03;;;;;;;2.80;1.70;;;;;;;10.12;98.83;99046.19;4992099;28;20106;-71
2021/08/09 02:56:30;;;;;;;5.15;2.20;;;;;;;9.91;99.64;99028.13;4975144;28;20057;-72
2021/08/09 02:58:55;;;;;;;5.55;2.95;;;;;;;9.91;99.50;99045.16;4991704;28;20031;-71
2021/08/09 03:01:26;;;;;;;4.82;2.25;;;;;;;9.90;99.99;99045.34;4990171;28;20076;-71
2021/08/09 03:03:54;;;;;;;4.00;2.28;;;;;;;10.10;100.00;99035.56;4984972;28;20484;-71
2021/08/09 03:06:20;;;;;;;5.57;2.13;;;;;;;10.14;100.00;99028.75;4976741;28;20054;-69
2021/08/09 03:08:46;;;;;;;5.38;2.38;;;;;;;10.26;99.89;99029.88;4970807;28;20365;-71
2021/08/09 03:11:13;;;;;;;4.57;2.58;;;;;;;10.26;99.19;99037.97;4974648;28;20033;-71
2021/08/09 03:13:45;;;;;;;5.47;2.22;;;;;;;10.27;99.47;99039.69;4989563;28;20484;-70
2021/08/09 03:16:10;;;;;;;4.70;2.35;;;;;;;10.20;99.48;99037.94;4986741;28;20026;-71
2021/08/09 03:18:35;;;;;;;4.15;2.67;;;;;;;10.03;100.00;99018.44;4991364;28;20033;-71
2021/08/09 03:21:01;;;;;;;5.60;1.83;;;;;;;10.08;100.00;99024.94;4992161;28;20023;-71
2021/08/09 03:23:26;;;;;;;3.25;2.17;;;;;;;10.06;99.97;99021.59;4973984;28;20672;-71
2021/08/09 03:25:51;;;;;;;2.97;1.95;;;;;;;10.20;100.00;99025.25;4992256;28;20026;-71
2021/08/09 03:28:17;;;;;;;5.68;2.15;;;;;;;10.18;100.00;99023.78;4985842;28;20023;-71
2021/08/09 03:30:42;;;;;;;3.67;2.28;;;;;;;10.11;100.00;99018.28;4971180;28;20027;-71
2021/08/09 03:33:07;;;;;;;5.47;2.10;;;;;;;10.10;99.49;99030.16;4990068;28;20038;-71
2021/08/09 03:35:33;;;;;;;4.45;2.03;;;;;;;10.13;100.00;99039.75;4973784;28;20030;-71
2021/08/09 03:37:58;;;;;;;5.55;2.05;;;;;;;10.15;99.54;99030.41;4977417;28;20030;-71
2021/08/09 03:40:23;;;;;;;5.78;2.30;;;;;;;10.09;99.50;99020.38;4969095;28;20042;-70
2021/08/09 03:42:49;;;;;;;3.72;2.13;;;;;;;10.27;99.48;99037.00;4983676;28;20409;-71
2021/08/09 03:45:15;;;;;;;9.07;2.42;;;;;;;10.19;99.44;99022.72;4995181;28;20080;-70
2021/08/09 03:47:40;;;;;;;4.22;1.65;;;;;;;10.20;99.37;99046.88;4995566;28;20053;-70
2021/08/09 03:50:05;;;;;;;2.80;1.48;;;;;;;10.02;97.58;99035.69;4994671;28;20476;-70
2021/08/09 03:52:31;;;;;;;4.38;1.73;;;;;;;9.98;97.04;99046.06;4977975;28;20121;-70
2021/08/09 03:54:56;;;;;;;2.30;1.70;;;;;;;9.90;97.46;99034.53;4987995;28;20112;-70
2021/08/09 03:57:23;;;;;;;2.75;1.80;;;;;;;9.76;97.73;99018.19;4984674;28;20027;-70
2021/08/09 03:59:48;;;;;;;3.90;1.80;;;;;;;9.79;97.76;99015.09;4977462;28;20099;-71
2021/08/09 04:02:15;;;;;;;5.35;1.85;;;;;;;9.81;97.89;99009.50;4994644;28;20069;-70
2021/08/09 04:04:41;;;;;;;3.47;1.90;;;;;;;9.83;97.96;99007.47;4986388;28;20045;-71
2021/08/09 04:07:06;;;;;;;2.58;1.92;;;;;;;9.99;98.01;99036.91;4975811;28;20392;-71
2021/08/09 04:09:32;;;;;;;3.72;1.73;;;;;;;9.92;97.21;99027.06;4976953;28;20472;-71
2021/08/09 04:11:57;;;;;;;3.33;1.85;;;;;;;9.83;96.83;99018.28;4994939;28;20034;-72
2021/08/09 04:14:22;;;;;;;4.57;2.38;;;;;;;9.80;97.97;99022.19;4995332;28;20034;-71
2021/08/09 04:16:47;;;;;;;5.13;1.95;;;;;;;9.85;98.26;99024.28;4992233;28;20030;-70
2021/08/09 04:19:13;;;;;;;3.88;2.00;;;;;;;9.93;98.68;99035.00;4973129;28;20030;-70
2021/08/09 04:21:38;;;;;;;3.55;2.10;;;;;;;9.93;98.81;99032.31;4980977;28;20486;-70
2021/08/09 04:24:04;;;;;;;5.10;2.38;;;;;;;10.06;99.19;99031.56;4977304;28;20068;-69
2021/08/09 04:26:29;;;;;;;2.95;1.88;;;;;;;9.79;98.92;98993.47;4963340;28;20461;-70
2021/08/09 04:28:55;;;;;;;11.07;2.72;;;;;;;10.22;99.29;99034.00;4994740;28;20498;-71
2021/08/09 04:31:20;;;;;;;5.50;2.55;;;;;;;10.31;98.35;99035.56;4992035;28;20412;-70
2021/08/09 04:33:48;;;;;;;3.05;1.88;;;;;;;10.41;97.95;99039.81;4993409;28;20037;-70
2021/08/09 04:36:13;;;;;;;5.35;2.38;;;;;;;10.52;97.50;99031.13;4976517;28;20042;-69
2021/08/09 04:38:39;;;;;;;4.25;2.28;;;;;;;10.70;96.01;99034.16;4994160;28;20033;-68
2021/08/09 04:41:07;;;;;;;4.88;2.30;;;;;;;10.82;94.60;99045.28;4988386;28;20392;-68
2021/08/09 04:43:37;;;;;;;3.33;1.90;;;;;;;10.87;94.13;99023.03;4992906;28;20484;-68
2021/08/09 04:46:04;;;;;;;6.28;2.40;;;;;;;10.95;92.30;99029.13;4976784;28;20519;-69
2021/08/09 04:48:30;;;;;;;4.28;1.80;;;;;;;10.95;92.75;99031.84;4988929;28;20030;-64
2021/08/09 04:50:55;;;;;;;3.35;2.03;;;;;;;10.99;91.89;99016.00;4993623;28;20037;-69
2021/08/09 04:53:21;;;;;;;5.97;1.90;;;;;;;11.11;92.74;99030.66;4993683;28;20116;-68
2021/08/09 04:55:46;;;;;;;8.18;2.30;;;;;;;11.13;91.21;99039.44;4994209;28;20081;-67
2021/08/09 04:58:11;;;;;;;3.35;1.88;;;;;;;11.19;91.79;99040.50;4993157;28;20023;-67
2021/08/09 05:00:37;;;;;;;5.05;2.70;;;;;;;11.23;91.71;99035.50;4986483;28;20085;-67
2021/08/09 05:03:02;;;;;;;6.47;2.10;;;;;;;11.32;91.66;99045.13;4992260;28;20081;-73
2021/08/09 05:05:27;;;;;;;6.97;1.60;;;;;;;11.23;91.15;99013.81;4974980;28;20477;-72
2021/08/09 05:07:56;;;;;;;3.33;1.85;;;;;;;11.37;91.18;99020.94;4991039;28;20033;-71
2021/08/09 05:10:23;;;;;;;4.57;1.73;;;;;;;11.48;89.90;99020.38;4990202;28;20069;-71
2021/08/09 05:12:48;;;;;;;1.75;1.38;;;;;;;11.74;89.06;99024.22;4993699;28;20040;-70
2021/08/09 05:15:14;;;;;;;5.30;2.00;;;;;;;11.72;88.70;99010.00;4986404;28;20026;-68
2021/08/09 05:17:39;;;;;;;3.30;1.60;;;;;;;11.90;89.33;99023.00;4983329;28;20113;-70
2021/08/09 05:20:06;;;;;;;3.78;1.60;;;;;;;12.11;87.77;99035.53;4970881;28;20049;-69
2021/08/09 05:22:33;;;;;;;2.85;1.33;;;;;;;12.26;87.44;99034.31;4984192;28;20035;-69
2021/08/09 05:24:59;;;;;;;2.70;1.98;;;;;;;12.40;87.07;99023.44;4985834;28;20046;-68
2021/08/09 05:27:25;;;;;;;4.28;1.30;;;;;;;12.45;85.84;99019.06;4992768;28;20488;-69
2021/08/09 05:29:50;;;;;;;2.80;1.60;;;;;;;12.54;84.24;99019.66;4990868;28;20072;-70
2021/08/09 05:32:15;;;;;;;2.72;1.40;;;;;;;12.82;83.89;99024.84;4987411;28;20034;-68
2021/08/09 05:34:45;;;;;;;2.63;1.50;;;;;;;13.08;82.19;99031.25;4973894;28;20392;-68
2021/08/09 05:37:11;;;;;;;3.00;1.30;;;;;;;13.29;81.34;99014.69;4984954;28;20044;-68
2021/08/09 05:39:36;;;;;;;1.50;1.33;;;;;;;13.55;82.26;99015.63;4993718;28;20058;-68
2021/08/09 05:42:02;;;;;;;3.47;1.95;;;;;;;13.70;81.19;99035.19;4989641;28;20022;-73
2021/08/09 05:44:27;;;;;;;2.97;1.20;;;;;;;13.74;80.55;99017.38;4970756;28;20034;-71
2021/08/09 05:46:52;;;;;;;2.15;1.40;;;;;;;13.93;79.70;99026.44;4971878;28;20441;-71
2021/08/09 05:49:18;;;;;;;4.10;1.42;;;;;;;14.02;78.15;99027.03;4991005;28;20496;-71
2021/08/09 05:51:44;;;;;;;5.28;1.85;;;;;;;14.19;79.15;99039.03;4975721;28;20050;-71
2021/08/09 05:54:09;;;;;;;3.25;1.75;;;;;;;14.41;78.99;99046.84;4974119;28;20125;-71
2021/08/09 05:56:35;;;;;;;1.95;1.23;;;;;;;14.50;78.98;99037.31;4984637;28;20563;-71
2021/08/09 05:59:01;;;;;;;7.25;1.55;;;;;;;14.74;77.99;99029.38;4983029;28;20034;-71
2021/08/09 06:01:26;;;;;;;8.00;1.77;;;;;;;14.87;76.06;99029.25;4980084;28;20388;-72
2021/08/09 06:03:52;;;;;;;3.50;1.27;;;;;;;15.16;73.25;99026.81;4982863;28;20108;-74
2021/08/09 06:06:18;;;;;;;3.17;1.40;;;;;;;15.34;72.25;99035.81;4981176;28;20029;-74
2021/08/09 06:08:45;;;;;;;3.53;1.50;;;;;;;15.59;71.32;99034.03;4961337;28;20023;-73
2021/08/09 06:11:10;;;;;;;2.85;1.27;;;;;;;15.92;70.37;99030.88;4968231;28;20511;-71
2021/08/09 06:13:36;;;;;;;2.60;1.42;;;;;;;15.96;69.61;99022.00;4967304;28;20030;-77
2021/08/09 06:16:01;;;;;;;5.30;1.40;;;;;;;16.19;68.20;99009.47;4981370;28;20057;-75
2021/08/09 06:18:26;;;;;;;2.17;1.10;;;;;;;16.77;65.95;99027.84;4971989;28;20030;-74
2021/08/09 06:20:52;;;;;;;2.83;1.10;;;;;;;17.30;65.32;99032.28;4971122;28;20499;-73
2021/08/09 06:23:17;;;;;;;4.05;0.82;;;;;;;18.20;62.00;99034.56;4982831;28;20019;-74
2021/08/09 06:25:43;;;;;;;6.78;1.20;;;;;;;19.31;58.25;99012.69;4981420;28;20042;-73
2021/08/09 06:28:09;;;;;;;2.03;0.70;;;;;;;21.18;53.45;99018.47;4983333;28;20026;-72
2021/08/09 06:30:34;;;;;;;3.92;0.90;;;;;;;22.33;49.20;99009.22;4981452;28;20034;-73
2021/08/09 06:32:59;;;;;;;3.15;0.98;;;;;;;23.30;46.58;99002.72;4973109;28;20073;-73
2021/08/09 06:35:25;;;;;;;2.33;0.75;;;;;;;24.29;43.69;99008.25;4981287;28;20026;-72
2021/08/09 06:37:50;;;;;;;1.70;0.80;;;;;;;25.06;41.67;99000.06;4979573;28;20030;-71
2021/08/09 06:40:15;;;;;;;4.93;0.70;;;;;;;24.65;41.12;98988.56;4971918;28;20022;-70
2021/08/09 06:42:40;;;;;;;2.55;0.80;;;;;;;24.35;42.68;99018.13;4979215;28;20121;-69
2021/08/09 06:45:06;;;;;;;2.90;0.75;;;;;;;24.57;41.75;99003.03;4981435;28;20404;-70
2021/08/09 06:47:31;;;;;;;1.85;0.82;;;;;;;25.36;39.56;99006.38;4977295;28;20026;-69
2021/08/09 06:49:57;;;;;;;2.45;0.80;;;;;;;25.40;39.76;99004.66;4977296;28;20046;-70
2021/08/09 06:52:22;;;;;;;3.35;1.00;;;;;;;25.94;39.01;99008.97;4984034;28;20057;-70
2021/08/09 06:54:47;;;;;;;1.50;0.70;;;;;;;25.66;39.22;99013.47;4978213;28;20027;-70
2021/08/09 06:57:13;;;;;;;1.73;0.70;;;;;;;26.98;36.86;99000.59;4979868;28;20030;-69
2021/08/09 06:59:39;;;;;;;5.10;0.88;;;;;;;26.78;37.79;99013.72;4982475;28;20022;-71
2021/08/09 07:02:04;;;;;;;3.08;0.80;;;;;;;27.26;36.84;99010.63;4966360;28;20067;-69
2021/08/09 07:04:29;;;;;;;2.67;0.77;;;;;;;27.38;36.31;99009.25;4982717;28;20033;-69
2021/08/09 07:06:55;;;;;;;1.63;0.70;;;;;;;26.56;37.51;99013.56;4979329;28;20030;-71
2021/08/09 07:09:21;;;;;;;1.45;0.80;;;;;;;26.49;38.22;99013.09;4964038;28;20040;-64
2021/08/09 07:11:46;;;;;;;1.30;0.82;;;;;;;27.48;36.17;99018.25;4977490;28;20030;-68
2021/08/09 07:14:12;;;;;;;4.20;1.10;;;;;;;27.61;36.02;99010.19;4984802;28;20042;-72
2021/08/09 07:16:37;;;;;;;4.05;1.05;;;;;;;26.41;38.96;99006.31;4990462;28;20109;-68
2021/08/09 07:19:03;;;;;;;2.42;0.82;;;;;;;26.42;38.57;99013.50;4986326;28;20038;-68
2021/08/09 07:21:28;;;;;;;1.40;0.70;;;;;;;27.85;36.67;99034.97;4977016;28;20047;-70
2021/08/09 07:23:53;;;;;;;3.20;1.10;;;;;;;27.52;36.56;99010.09;4976074;28;20472;-68
2021/08/09 07:26:19;;;;;;;2.35;0.80;;;;;;;27.27;36.86;99023.38;4996379;28;20527;-70
2021/08/09 07:28:44;;;;;;;2.63;1.20;;;;;;;28.02;35.16;99012.91;4976544;28;20120;-72
2021/08/09 07:31:09;;;;;;;5.18;1.08;;;;;;;26.58;37.72;99005.75;4992520;28;20031;-73
2021/08/09 07:33:35;;;;;;;2.20;0.80;;;;;;;27.63;36.04;99022.63;4974403;28;20023;-72
2021/08/09 07:36:01;;;;;;;0.85;0.60;;;;;;;27.45;36.75;99029.94;4970824;28;20042;-72
2021/08/09 07:38:27;;;;;;;2.35;0.70;;;;;;;28.36;35.24;98997.63;4968123;28;20085;-72
2021/08/09 07:40:52;;;;;;;5.03;0.80;;;;;;;28.25;35.71;99022.09;4977330;28;20038;-73
2021/08/09 07:43:18;;;;;;;3.38;0.80;;;;;;;29.16;34.00;99008.94;4976815;28;20030;-73
2021/08/09 07:45:43;;;;;;;1.70;0.80;;;;;;;30.41;32.80;99002.97;4961008;28;20076;-71
2021/08/09 07:48:08;;;;;;;2.78;0.82;;;;;;;30.58;32.39;99016.91;4989994;28;20185;-71
2021/08/09 07:50:34;;;;;;;2.55;0.73;;;;;;;30.99;31.00;99019.16;4995204;28;20026;-71
2021/08/09 07:53:00;;;;;;;2.65;0.80;;;;;;;32.45;29.52;99017.78;4977843;28;20076;-72
2021/08/09 07:55:25;;;;;;;5.60;1.10;;;;;;;31.45;30.32;99008.28;4976041;28;20113;-72
2021/08/09 07:57:51;;;;;;;2.70;0.80;;;;;;;31.35;31.04;99017.00;4993871;28;20415;-72
2021/08/09 08:00:17;;;;;;;1.27;0.70;;;;;;;31.06;32.20;99026.19;4988235;28;20034;-73
2021/08/09 08:02:42;;;;;;;3.45;0.75;;;;;;;31.66;30.72;99014.72;4987252;28;20022;-72
2021/08/09 08:05:08;;;;;;;2.25;0.70;;;;;;;30.84;30.98;99002.06;4994877;28;20104;-72
2021/08/09 08:07:34;;;;;;;1.95;0.68;;;;;;;30.06;32.76;99022.47;4992659;28;20034;-72
2021/08/09 08:10:01;;;;;;;2.80;0.68;;;;;;;31.47;30.74;99019.94;4978718;28;20031;-72
2021/08/09 08:12:27;;;;;;;6.80;1.35;;;;;;;31.31;30.45;99002.06;4974404;28;20027;-72
2021/08/09 08:14:52;;;;;;;2.03;0.63;;;;;;;31.15;31.12;98996.22;4983263;28;20369;-71
2021/08/09 08:17:18;;;;;;;2.35;0.80;;;;;;;30.65;31.58;99024.75;4990877;28;20521;-72
2021/08/09 08:19:43;;;;;;;1.55;0.60;;;;;;;29.97;32.80;99016.88;4995153;28;20052;-72
2021/08/09 08:22:08;;;;;;;1.15;0.50;;;;;;;30.71;31.05;99018.69;4975271;28;20041;-72
2021/08/09 08:24:34;;;;;;;2.83;0.80;;;;;;;31.44;30.90;99012.25;4966595;28;20031;-72
2021/08/09 08:26:59;;;;;;;1.02;0.70;;;;;;;31.53;30.95;99010.19;4995712;28;20018;-72
2021/08/09 08:29:25;;;;;;;3.40;0.82;;;;;;;30.96;30.72;98996.63;4994140;28;20093;-71
2021/08/09 08:31:50;;;;;;;2.72;0.80;;;;;;;30.28;31.97;99013.16;4992407;28;20031;-71
2021/08/09 08:34:15;;;;;;;2.85;0.73;;;;;;;29.80;31.78;99012.13;4993211;28;20414;-70
2021/08/09 08:36:41;;;;;;;1.90;0.60;;;;;;;30.37;32.01;99013.97;4981072;28;20514;-70
2021/08/09 08:39:07;;;;;;;2.42;0.80;;;;;;;31.23;30.98;99000.94;4991548;28;20539;-71
2021/08/09 08:41:32;;;;;;;2.97;0.75;;;;;;;30.78;30.89;99015.38;4993985;28;20028;-71
2021/08/09 08:43:58;;;;;;;5.50;0.63;;;;;;;30.88;31.23;99014.22;4975517;28;20027;-70
2021/08/09 08:46:24;;;;;;;4.07;0.90;;;;;;;31.55;30.11;98984.72;4975103;28;20054;-71
2021/08/09 08:48:51;;;;;;;2.90;1.00;;;;;;;32.12;28.91;98994.50;4975906;28;20050;-70
2021/08/09 08:51:23;;;;;;;2.47;0.80;;;;;;;32.41;28.50;99000.03;4986516;28;20034;-70
2021/08/09 08:53:49;;;;;;;1.98;0.88;;;;;;;31.29;30.21;99015.56;4980264;28;20033;-71
2021/08/09 08:56:15;;;;;;;1.80;0.57;;;;;;;31.87;29.81;98997.16;4964057;28;20038;-71
2021/08/09 08:58:40;;;;;;;1.65;0.50;;;;;;;31.58;29.92;98987.63;4958948;28;20031;-71
2021/08/09 09:01:05;;;;;;;2.97;0.70;;;;;;;31.35;29.94;99003.03;4994340;28;20033;-71
2021/08/09 09:03:37;;;;;;;2.78;0.90;;;;;;;33.25;28.40;99010.19;4993996;28;20030;-71
2021/08/09 09:06:08;;;;;;;1.55;0.55;;;;;;;33.10;27.19;99011.72;4972530;28;20037;-71
2021/08/09 09:08:45;;;;;;;2.05;0.50;;;;;;;32.23;26.74;99002.16;4993875;28;20412;-71
2021/08/09 09:11:12;;;;;;;2.05;0.70;;;;;;;30.82;29.90;99004.41;4976614;28;20768;-71
2021/08/09 09:13:55;;;;;;;2.10;0.50;;;;;;;32.24;28.12;99011.38;4993858;28;20435;-71
2021/08/09 09:16:21;;;;;;;4.25;0.52;;;;;;;31.60;28.92;98998.50;4991370;28;20165;-70
2021/08/09 09:18:57;;;;;;;4.00;0.88;;;;;;;33.25;27.84;98998.97;5013871;28;20460;-71
2021/08/09 09:21:41;;;;;;;2.47;0.65;;;;;;;33.82;26.42;98984.84;5006756;28;20022;-70
2021/08/09 09:24:15;;;;;;;2.15;0.65;;;;;;;34.63;25.74;99001.66;4974929;28;20031;-72
2021/08/09 09:26:42;;;;;;;1.83;0.65;;;;;;;34.67;24.92;99001.78;4978410;28;20034;-71
2021/08/09 09:29:16;;;;;;;0.97;0.37;;;;;;;33.88;24.83;99004.22;4963146;28;20507;-71
2021/08/09 09:31:44;;;;;;;3.88;0.50;;;;;;;33.48;25.24;99005.75;4974576;28;20038;-70
2021/08/09 09:34:14;;;;;;;2.08;0.70;;;;;;;33.32;25.81;99011.25;4974550;28;20114;-70
2021/08/09 09:36:57;;;;;;;1.13;0.57;;;;;;;31.85;27.14;98999.47;4974845;28;20065;-71
2021/08/09 09:39:29;;;;;;;2.33;0.60;;;;;;;31.03;28.39;99010.91;4976108;28;20204;-70
2021/08/09 09:41:56;;;;;;;1.27;0.50;;;;;;;30.78;28.01;98998.59;4975521;28;20496;-71
2021/08/09 09:44:23;;;;;;;2.67;0.80;;;;;;;31.22;28.61;98977.75;4976264;28;20678;-71
2021/08/09 09:46:48;;;;;;;1.52;0.55;;;;;;;30.36;29.26;99001.16;4990565;28;20023;-71
2021/08/09 09:49:31;;;;;;;3.75;0.70;;;;;;;29.31;31.25;99027.19;4972969;28;20456;-71
2021/08/09 09:51:57;;;;;;;1.50;0.68;;;;;;;29.08;31.90;98999.41;4982209;28;20393;-71
2021/08/09 09:54:23;;;;;;;2.75;0.68;;;;;;;27.69;33.74;99007.50;4962472;28;20030;-71
2021/08/09 09:56:50;;;;;;;1.33;0.60;;;;;;;27.81;34.17;99000.59;4974161;28;20035;-71
2021/08/09 09:59:16;;;;;;;1.98;0.70;;;;;;;27.36;34.75;99015.16;4978279;28;20036;-71
2021/08/09 10:01:42;;;;;;;2.35;0.80;;;;;;;27.55;34.70;99012.25;4992925;28;20077;-71
2021/08/09 10:04:07;;;;;;;2.05;0.60;;;;;;;28.13;34.58;99024.59;4993147;28;20027;-71
2021/08/09 10:06:35;;;;;;;1.65;0.60;;;;;;;28.31;33.63;99020.84;4993878;28;20105;-72
2021/08/09 10:09:01;;;;;;;2.78;0.60;;;;;;;28.12;32.96;99018.22;4959963;28;20110;-72
2021/08/09 10:11:28;;;;;;;4.22;1.00;;;;;;;27.57;33.36;99006.38;4979173;28;20026;-72
2021/08/09 10:13:56;;;;;;;2.13;0.52;;;;;;;28.07;33.34;99015.56;4958513;28;20543;-71
2021/08/09 10:16:31;;;;;;;1.98;0.80;;;;;;;28.78;32.31;98999.06;4991890;28;20030;-71
2021/08/09 10:18:59;;;;;;;1.42;0.50;;;;;;;29.76;31.65;99010.28;4983364;28;20041;-72
2021/08/09 10:21:32;;;;;;;1.58;0.60;;;;;;;30.25;30.49;98983.94;4964395;28;20026;-71
2021/08/09 10:23:59;;;;;;;1.10;0.47;;;;;;;29.11;31.92;99007.13;4986281;28;20109;-71
2021/08/09 10:26:27;;;;;;;2.08;0.57;;;;;;;28.68;32.14;99021.59;4984784;28;20041;-70
2021/08/09 10:28:52;;;;;;;1.83;0.80;;;;;;;28.86;32.62;99016.97;4993414;28;20029;-71
2021/08/09 10:31:26;;;;;;;2.20;0.88;;;;;;;29.51;31.69;99001.53;4970412;28;20859;-71
2021/08/09 10:33:53;;;;;;;1.40;0.55;;;;;;;30.47;29.90;99018.38;4988210;28;20034;-73
2021/08/09 10:36:22;;;;;;;2.58;0.45;;;;;;;29.63;30.59;99010.09;4991852;28;20034;-72
2021/08/09 10:38:52;;;;;;;0.95;0.50;;;;;;;28.28;32.82;99015.91;4974181;28;20443;-73
2021/08/09 10:41:26;;;;;;;4.55;0.63;;;;;;;29.48;32.34;99007.75;4990958;28;20072;-73
2021/08/09 10:44:07;;;;;;;1.90;0.50;;;;;;;29.76;32.99;99004.72;4987169;28;20026;-71
2021/08/09 10:46:36;;;;;;;2.15;0.63;;;;;;;29.28;33.67;99009.97;4987253;28;20029;-69
2021/08/09 10:49:02;;;;;;;2.15;0.80;;;;;;;29.73;30.72;98997.81;4988403;28;20026;-72
2021/08/09 10:51:50;;;;;;;2.45;0.55;;;;;;;28.98;34.17;99008.03;4990466;28;20117;-69
2021/08/09 10:54:35;;;;;;;2.85;0.80;;;;;;;27.39;36.71;99002.59;4992930;28;20674;-69
2021/08/09 10:57:01;;;;;;;3.13;0.63;;;;;;;27.69;37.11;99001.09;4982896;28;20642;-70
2021/08/09 10:59:42;;;;;;;0.77;0.60;;;;;;;27.65;38.36;99006.47;4998126;28;20027;-70
2021/08/09 11:02:21;;;;;;;2.00;1.00;;;;;;;29.25;36.59;98996.69;4998402;28;20395;-70
2021/08/09 11:05:14;;;;;;;1.70;0.60;;;;;;;29.33;34.43;99005.41;4986305;28;20053;-69
2021/08/09 11:07:41;;;;;;;1.75;0.65;;;;;;;28.39;35.99;98994.22;4995390;28;20026;-70
2021/08/09 11:10:07;;;;;;;1.65;0.60;;;;;;;28.10;37.73;98995.47;4997662;28;20085;-70
2021/08/09 11:12:33;;;;;;;2.33;0.57;;;;;;;27.94;38.09;99002.53;4982349;28;20026;-70
2021/08/09 11:15:03;;;;;;;1.20;0.60;;;;;;;29.42;35.68;98998.72;4996970;28;20022;-69
2021/08/09 11:17:43;;;;;;;2.72;0.93;;;;;;;31.18;32.74;98988.00;4996660;28;20030;-69
2021/08/09 11:20:22;;;;;;;3.88;0.68;;;;;;;32.41;28.90;98977.63;4995186;28;20026;-70
2021/08/09 11:22:57;;;;;;;1.85;0.70;;;;;;;33.53;26.46;98990.66;4995350;28;20081;-70
2021/08/09 11:25:34;;;;;;;3.22;0.50;;;;;;;33.45;26.28;98991.63;4980102;28;20038;-70
2021/08/09 11:28:13;;;;;;;0.90;0.47;;;;;;;36.08;24.58;98978.72;4981069;28;20038;-70
2021/08/09 11:30:42;;;;;;;1.42;0.70;;;;;;;36.60;25.46;98999.94;4976121;28;20535;-71
2021/08/09 11:33:18;;;;;;;1.50;0.55;;;;;;;37.65;24.27;98990.13;4982391;28;20062;-70
2021/08/09 11:35:45;;;;;;;2.05;0.60;;;;;;;36.76;23.33;98980.94;4979044;28;20054;-70